sensor_id;sensor_type;location;lat;lon;timestamp;P1;durP1;ratioP1;P2;durP2;ratioP2
28862;SDS011;15994;51.796;13.006;2023-07-22T00:01:44;2.15;;;1.20;;
28862;SDS011;15994;51.796;13.006;2023-07-22T00:04:11;1.50;;;1.10;;
28862;SDS011;15994;51.796;13.006;2023-07-22T00:06:38;1.60;;;0.90;;
28862;SDS011;15994;51.796;13.006;2023-07-22T00:09:05;1.95;;;1.08;;
28862;SDS011;15994;51.796;13.006;2023-07-22T00:11:32;2.10;;;1.15;;
28862;SDS011;15994;51.796;13.006;2023-07-22T00:13:59;2.47;;;1.25;;
28862;SDS011;15994;51.796;13.006;2023-07-22T00:16:26;1.90;;;1.08;;
28862;SDS011;15994;51.796;13.006;2023-07-22T00:18:54;1.70;;;1.10;;
28862;SDS011;15994;51.796;13.006;2023-07-22T00:21:21;2.17;;;1.08;;
28862;SDS011;15994;51.796;13.006;2023-07-22T00:23:48;2.45;;;1.17;;
28862;SDS011;15994;51.796;13.006;2023-07-22T00:26:15;2.58;;;1.13;;
28862;SDS011;15994;51.796;13.006;2023-07-22T00:28:42;1.98;;;1.20;;
28862;SDS011;15994;51.796;13.006;2023-07-22T00:31:09;1.98;;;1.15;;
28862;SDS011;15994;51.796;13.006;2023-07-22T00:33:36;3.35;;;1.23;;
28862;SDS011;15994;51.796;13.006;2023-07-22T00:36:03;2.45;;;1.20;;
28862;SDS011;15994;51.796;13.006;2023-07-22T00:38:30;2.28;;;0.90;;
28862;SDS011;15994;51.796;13.006;2023-07-22T00:40:57;2.83;;;1.27;;
28862;SDS011;15994;51.796;13.006;2023-07-22T00:43:24;2.38;;;1.30;;
28862;SDS011;15994;51.796;13.006;2023-07-22T00:45:51;2.70;;;1.80;;
28862;SDS011;15994;51.796;13.006;2023-07-22T00:48:18;1.63;;;1.20;;
28862;SDS011;15994;51.796;13.006;2023-07-22T00:50:46;3.33;;;1.50;;
28862;SDS011;15994;51.796;13.006;2023-07-22T00:53:13;3.10;;;1.25;;
28862;SDS011;15994;51.796;13.006;2023-07-22T00:55:40;6.18;;;2.45;;
28862;SDS011;15994;51.796;13.006;2023-07-22T00:58:07;2.35;;;1.33;;
28862;SDS011;15994;51.796;13.006;2023-07-22T01:00:34;2.80;;;1.67;;
28862;SDS011;15994;51.796;13.006;2023-07-22T01:03:01;3.65;;;1.67;;
28862;SDS011;15994;51.796;13.006;2023-07-22T01:05:29;3.25;;;1.67;;
28862;SDS011;15994;51.796;13.006;2023-07-22T01:07:57;4.10;;;1.85;;
28862;SDS011;15994;51.796;13.006;2023-07-22T01:10:24;1.92;;;1.30;;
28862;SDS011;15994;51.796;13.006;2023-07-22T01:12:51;2.67;;;1.50;;
28862;SDS011;15994;51.796;13.006;2023-07-22T01:15:18;3.28;;;1.88;;
28862;SDS011;15994;51.796;13.006;2023-07-22T01:17:45;2.88;;;1.30;;
28862;SDS011;15994;51.796;13.006;2023-07-22T01:20:12;3.20;;;1.55;;
28862;SDS011;15994;51.796;13.006;2023-07-22T01:22:39;1.73;;;1.40;;
28862;SDS011;15994;51.796;13.006;2023-07-22T01:25:08;2.38;;;1.30;;
28862;SDS011;15994;51.796;13.006;2023-07-22T01:27:35;2.00;;;1.00;;
28862;SDS011;15994;51.796;13.006;2023-07-22T01:30:02;3.70;;;1.40;;
28862;SDS011;15994;51.796;13.006;2023-07-22T01:32:30;3.15;;;1.30;;
28862;SDS011;15994;51.796;13.006;2023-07-22T01:34:57;3.33;;;1.52;;
28862;SDS011;15994;51.796;13.006;2023-07-22T01:37:24;3.72;;;1.40;;
28862;SDS011;15994;51.796;13.006;2023-07-22T01:39:51;3.70;;;1.40;;
28862;SDS011;15994;51.796;13.006;2023-07-22T01:42:18;1.85;;;1.30;;
28862;SDS011;15994;51.796;13.006;2023-07-22T01:44:45;3.50;;;1.33;;
28862;SDS011;15994;51.796;13.006;2023-07-22T01:47:12;3.60;;;1.25;;
28862;SDS011;15994;51.796;13.006;2023-07-22T01:49:39;2.88;;;1.30;;
28862;SDS011;15994;51.796;13.006;2023-07-22T01:52:06;3.03;;;1.38;;
28862;SDS011;15994;51.796;13.006;2023-07-22T01:54:33;3.83;;;1.38;;
28862;SDS011;15994;51.796;13.006;2023-07-22T01:57:00;2.08;;;1.30;;
28862;SDS011;15994;51.796;13.006;2023-07-22T01:59:27;2.30;;;1.27;;
28862;SDS011;15994;51.796;13.006;2023-07-22T02:01:54;3.35;;;1.50;;
28862;SDS011;15994;51.796;13.006;2023-07-22T02:04:21;5.82;;;2.22;;
28862;SDS011;15994;51.796;13.006;2023-07-22T02:06:48;4.40;;;1.60;;
28862;SDS011;15994;51.796;13.006;2023-07-22T02:09:15;3.13;;;1.38;;
28862;SDS011;15994;51.796;13.006;2023-07-22T02:11:42;2.15;;;1.35;;
28862;SDS011;15994;51.796;13.006;2023-07-22T02:14:09;2.30;;;1.50;;
28862;SDS011;15994;51.796;13.006;2023-07-22T02:16:36;2.22;;;1.20;;
28862;SDS011;15994;51.796;13.006;2023-07-22T02:19:03;3.75;;;1.40;;
28862;SDS011;15994;51.796;13.006;2023-07-22T02:21:30;2.55;;;1.40;;
28862;SDS011;15994;51.796;13.006;2023-07-22T02:23:57;2.90;;;1.40;;
28862;SDS011;15994;51.796;13.006;2023-07-22T02:26:24;3.50;;;1.50;;
28862;SDS011;15994;51.796;13.006;2023-07-22T02:28:51;3.90;;;1.60;;
28862;SDS011;15994;51.796;13.006;2023-07-22T02:31:19;4.05;;;1.40;;
28862;SDS011;15994;51.796;13.006;2023-07-22T02:33:47;3.50;;;1.50;;
28862;SDS011;15994;51.796;13.006;2023-07-22T02:36:14;3.13;;;1.23;;
28862;SDS011;15994;51.796;13.006;2023-07-22T02:38:41;1.90;;;1.30;;
28862;SDS011;15994;51.796;13.006;2023-07-22T02:41:08;5.50;;;1.50;;
28862;SDS011;15994;51.796;13.006;2023-07-22T02:43:35;3.63;;;1.60;;
28862;SDS011;15994;51.796;13.006;2023-07-22T02:46:03;2.67;;;1.50;;
28862;SDS011;15994;51.796;13.006;2023-07-22T02:48:32;2.35;;;1.38;;
28862;SDS011;15994;51.796;13.006;2023-07-22T02:51:06;3.20;;;1.40;;
28862;SDS011;15994;51.796;13.006;2023-07-22T02:53:34;2.72;;;1.23;;
28862;SDS011;15994;51.796;13.006;2023-07-22T02:56:03;2.97;;;1.40;;
28862;SDS011;15994;51.796;13.006;2023-07-22T02:58:31;2.92;;;1.30;;
28862;SDS011;15994;51.796;13.006;2023-07-22T03:00:58;3.28;;;1.38;;
28862;SDS011;15994;51.796;13.006;2023-07-22T03:03:25;3.17;;;1.63;;
28862;SDS011;15994;51.796;13.006;2023-07-22T03:05:52;2.03;;;1.40;;
28862;SDS011;15994;51.796;13.006;2023-07-22T03:08:19;3.75;;;1.40;;
28862;SDS011;15994;51.796;13.006;2023-07-22T03:10:46;3.03;;;1.58;;
28862;SDS011;15994;51.796;13.006;2023-07-22T03:13:14;3.30;;;1.33;;
28862;SDS011;15994;51.796;13.006;2023-07-22T03:15:42;2.13;;;1.17;;
28862;SDS011;15994;51.796;13.006;2023-07-22T03:18:09;3.90;;;1.38;;
28862;SDS011;15994;51.796;13.006;2023-07-22T03:20:37;1.77;;;1.30;;
28862;SDS011;15994;51.796;13.006;2023-07-22T03:23:04;3.33;;;1.40;;
28862;SDS011;15994;51.796;13.006;2023-07-22T03:25:31;4.43;;;1.45;;
28862;SDS011;15994;51.796;13.006;2023-07-22T03:28:03;2.90;;;1.33;;
28862;SDS011;15994;51.796;13.006;2023-07-22T03:30:30;3.80;;;1.50;;
28862;SDS011;15994;51.796;13.006;2023-07-22T03:32:58;3.05;;;1.38;;
28862;SDS011;15994;51.796;13.006;2023-07-22T03:35:25;2.88;;;1.42;;
28862;SDS011;15994;51.796;13.006;2023-07-22T03:37:53;3.33;;;1.55;;
28862;SDS011;15994;51.796;13.006;2023-07-22T03:40:19;3.10;;;1.85;;
28862;SDS011;15994;51.796;13.006;2023-07-22T03:42:51;2.85;;;1.52;;
28862;SDS011;15994;51.796;13.006;2023-07-22T03:45:19;5.25;;;1.95;;
28862;SDS011;15994;51.796;13.006;2023-07-22T03:47:47;3.72;;;1.60;;
28862;SDS011;15994;51.796;13.006;2023-07-22T03:50:14;2.70;;;1.45;;
28862;SDS011;15994;51.796;13.006;2023-07-22T03:52:41;2.85;;;1.35;;
28862;SDS011;15994;51.796;13.006;2023-07-22T03:55:08;2.45;;;1.60;;
28862;SDS011;15994;51.796;13.006;2023-07-22T03:57:35;3.15;;;1.65;;
28862;SDS011;15994;51.796;13.006;2023-07-22T04:00:03;4.60;;;1.40;;
28862;SDS011;15994;51.796;13.006;2023-07-22T04:02:30;3.03;;;1.33;;
28862;SDS011;15994;51.796;13.006;2023-07-22T04:04:57;2.92;;;1.30;;
28862;SDS011;15994;51.796;13.006;2023-07-22T04:07:24;3.40;;;1.40;;
28862;SDS011;15994;51.796;13.006;2023-07-22T04:09:51;3.30;;;1.70;;
28862;SDS011;15994;51.796;13.006;2023-07-22T04:12:18;3.40;;;1.40;;
28862;SDS011;15994;51.796;13.006;2023-07-22T04:14:45;3.55;;;1.30;;
28862;SDS011;15994;51.796;13.006;2023-07-22T04:17:12;2.10;;;1.40;;
28862;SDS011;15994;51.796;13.006;2023-07-22T04:19:40;2.63;;;1.38;;
28862;SDS011;15994;51.796;13.006;2023-07-22T04:22:08;5.68;;;1.55;;
28862;SDS011;15994;51.796;13.006;2023-07-22T04:24:35;3.53;;;1.50;;
28862;SDS011;15994;51.796;13.006;2023-07-22T04:27:02;3.47;;;1.27;;
28862;SDS011;15994;51.796;13.006;2023-07-22T04:29:29;2.13;;;1.30;;
28862;SDS011;15994;51.796;13.006;2023-07-22T04:31:57;3.03;;;1.35;;
28862;SDS011;15994;51.796;13.006;2023-07-22T04:34:28;2.00;;;1.30;;
28862;SDS011;15994;51.796;13.006;2023-07-22T04:36:55;3.60;;;1.40;;
28862;SDS011;15994;51.796;13.006;2023-07-22T04:39:22;3.47;;;1.45;;
28862;SDS011;15994;51.796;13.006;2023-07-22T04:41:49;3.22;;;1.40;;
28862;SDS011;15994;51.796;13.006;2023-07-22T04:44:17;4.70;;;1.42;;
28862;SDS011;15994;51.796;13.006;2023-07-22T04:46:44;3.10;;;1.30;;
28862;SDS011;15994;51.796;13.006;2023-07-22T04:49:11;2.17;;;1.30;;
28862;SDS011;15994;51.796;13.006;2023-07-22T04:51:42;3.53;;;1.25;;
28862;SDS011;15994;51.796;13.006;2023-07-22T04:54:09;3.15;;;1.20;;
28862;SDS011;15994;51.796;13.006;2023-07-22T04:56:36;3.25;;;1.33;;
28862;SDS011;15994;51.796;13.006;2023-07-22T04:59:03;2.60;;;1.17;;
28862;SDS011;15994;51.796;13.006;2023-07-22T05:01:30;2.50;;;1.40;;
28862;SDS011;15994;51.796;13.006;2023-07-22T05:03:57;3.45;;;1.40;;
28862;SDS011;15994;51.796;13.006;2023-07-22T05:06:25;2.10;;;1.00;;
28862;SDS011;15994;51.796;13.006;2023-07-22T05:08:52;5.60;;;1.30;;
28862;SDS011;15994;51.796;13.006;2023-07-22T05:11:19;2.40;;;1.30;;
28862;SDS011;15994;51.796;13.006;2023-07-22T05:13:48;3.05;;;1.50;;
28862;SDS011;15994;51.796;13.006;2023-07-22T05:16:15;4.13;;;1.25;;
28862;SDS011;15994;51.796;13.006;2023-07-22T05:18:42;2.20;;;1.35;;
28862;SDS011;15994;51.796;13.006;2023-07-22T05:21:09;4.03;;;1.63;;
28862;SDS011;15994;51.796;13.006;2023-07-22T05:23:36;3.45;;;1.33;;
28862;SDS011;15994;51.796;13.006;2023-07-22T05:26:03;2.53;;;1.20;;
28862;SDS011;15994;51.796;13.006;2023-07-22T05:28:30;6.43;;;2.90;;
28862;SDS011;15994;51.796;13.006;2023-07-22T05:30:57;7.25;;;4.75;;
28862;SDS011;15994;51.796;13.006;2023-07-22T05:33:25;2.97;;;1.52;;
28862;SDS011;15994;51.796;13.006;2023-07-22T05:35:52;6.90;;;3.53;;
28862;SDS011;15994;51.796;13.006;2023-07-22T05:38:19;8.18;;;4.43;;
28862;SDS011;15994;51.796;13.006;2023-07-22T05:40:46;8.82;;;5.30;;
28862;SDS011;15994;51.796;13.006;2023-07-22T05:43:13;6.50;;;3.90;;
28862;SDS011;15994;51.796;13.006;2023-07-22T05:45:40;6.10;;;1.60;;
28862;SDS011;15994;51.796;13.006;2023-07-22T05:48:07;7.20;;;4.00;;
28862;SDS011;15994;51.796;13.006;2023-07-22T05:50:34;4.25;;;2.78;;
28862;SDS011;15994;51.796;13.006;2023-07-22T05:53:01;7.75;;;4.47;;
28862;SDS011;15994;51.796;13.006;2023-07-22T05:55:28;7.15;;;4.85;;
28862;SDS011;15994;51.796;13.006;2023-07-22T05:57:55;5.78;;;4.72;;
28862;SDS011;15994;51.796;13.006;2023-07-22T06:00:23;8.95;;;6.10;;
28862;SDS011;15994;51.796;13.006;2023-07-22T06:02:50;5.97;;;4.43;;
28862;SDS011;15994;51.796;13.006;2023-07-22T06:05:17;5.65;;;3.80;;
28862;SDS011;15994;51.796;13.006;2023-07-22T06:07:44;5.93;;;3.05;;
28862;SDS011;15994;51.796;13.006;2023-07-22T06:10:11;5.13;;;3.50;;
28862;SDS011;15994;51.796;13.006;2023-07-22T06:12:38;5.68;;;3.22;;
28862;SDS011;15994;51.796;13.006;2023-07-22T06:15:06;6.40;;;3.10;;
28862;SDS011;15994;51.796;13.006;2023-07-22T06:17:33;6.40;;;4.45;;
28862;SDS011;15994;51.796;13.006;2023-07-22T06:20:01;5.00;;;3.47;;
28862;SDS011;15994;51.796;13.006;2023-07-22T06:22:28;4.78;;;3.08;;
28862;SDS011;15994;51.796;13.006;2023-07-22T06:24:55;4.22;;;3.05;;
28862;SDS011;15994;51.796;13.006;2023-07-22T06:27:22;8.25;;;4.00;;
28862;SDS011;15994;51.796;13.006;2023-07-22T06:29:49;6.28;;;3.83;;
28862;SDS011;15994;51.796;13.006;2023-07-22T06:32:16;9.90;;;5.47;;
28862;SDS011;15994;51.796;13.006;2023-07-22T06:34:43;8.75;;;4.90;;
28862;SDS011;15994;51.796;13.006;2023-07-22T06:37:10;7.13;;;4.68;;
28862;SDS011;15994;51.796;13.006;2023-07-22T06:39:37;8.00;;;3.92;;
28862;SDS011;15994;51.796;13.006;2023-07-22T06:42:04;5.53;;;3.88;;
28862;SDS011;15994;51.796;13.006;2023-07-22T06:44:32;6.07;;;3.60;;
28862;SDS011;15994;51.796;13.006;2023-07-22T06:46:59;8.07;;;5.57;;
28862;SDS011;15994;51.796;13.006;2023-07-22T06:49:26;6.80;;;4.38;;
28862;SDS011;15994;51.796;13.006;2023-07-22T06:51:53;4.88;;;2.55;;
28862;SDS011;15994;51.796;13.006;2023-07-22T06:54:20;6.10;;;3.95;;
28862;SDS011;15994;51.796;13.006;2023-07-22T06:56:47;5.93;;;3.70;;
28862;SDS011;15994;51.796;13.006;2023-07-22T06:59:14;6.40;;;4.07;;
28862;SDS011;15994;51.796;13.006;2023-07-22T07:01:41;9.15;;;4.78;;
28862;SDS011;15994;51.796;13.006;2023-07-22T07:04:08;10.48;;;5.10;;
28862;SDS011;15994;51.796;13.006;2023-07-22T07:06:35;9.52;;;5.25;;
28862;SDS011;15994;51.796;13.006;2023-07-22T07:09:04;6.93;;;4.57;;
28862;SDS011;15994;51.796;13.006;2023-07-22T07:11:31;8.35;;;5.55;;
28862;SDS011;15994;51.796;13.006;2023-07-22T07:13:58;9.80;;;4.97;;
28862;SDS011;15994;51.796;13.006;2023-07-22T07:16:26;10.07;;;4.53;;
28862;SDS011;15994;51.796;13.006;2023-07-22T07:18:53;6.55;;;3.60;;
28862;SDS011;15994;51.796;13.006;2023-07-22T07:21:21;8.70;;;4.00;;
28862;SDS011;15994;51.796;13.006;2023-07-22T07:23:48;5.93;;;3.95;;
28862;SDS011;15994;51.796;13.006;2023-07-22T07:26:16;8.10;;;4.72;;
28862;SDS011;15994;51.796;13.006;2023-07-22T07:28:43;5.65;;;3.78;;
28862;SDS011;15994;51.796;13.006;2023-07-22T07:31:11;6.18;;;3.70;;
28862;SDS011;15994;51.796;13.006;2023-07-22T07:33:38;6.18;;;4.15;;
28862;SDS011;15994;51.796;13.006;2023-07-22T07:36:05;7.05;;;3.58;;
28862;SDS011;15994;51.796;13.006;2023-07-22T07:38:32;7.72;;;3.83;;
28862;SDS011;15994;51.796;13.006;2023-07-22T07:41:04;6.40;;;3.78;;
28862;SDS011;15994;51.796;13.006;2023-07-22T07:43:33;8.38;;;4.30;;
28862;SDS011;15994;51.796;13.006;2023-07-22T07:48:50;7.80;;;3.08;;
28862;SDS011;15994;51.796;13.006;2023-07-22T07:51:18;7.20;;;3.80;;
28862;SDS011;15994;51.796;13.006;2023-07-22T07:53:46;5.43;;;3.20;;
28862;SDS011;15994;51.796;13.006;2023-07-22T07:56:13;7.95;;;4.10;;
28862;SDS011;15994;51.796;13.006;2023-07-22T07:58:41;5.75;;;3.17;;
28862;SDS011;15994;51.796;13.006;2023-07-22T08:01:08;7.20;;;3.38;;
28862;SDS011;15994;51.796;13.006;2023-07-22T08:03:35;6.40;;;3.83;;
28862;SDS011;15994;51.796;13.006;2023-07-22T08:06:03;6.55;;;4.10;;
28862;SDS011;15994;51.796;13.006;2023-07-22T08:08:31;5.32;;;3.15;;
28862;SDS011;15994;51.796;13.006;2023-07-22T08:11:02;6.68;;;3.90;;
28862;SDS011;15994;51.796;13.006;2023-07-22T08:13:29;5.35;;;3.22;;
28862;SDS011;15994;51.796;13.006;2023-07-22T08:15:58;5.97;;;3.80;;
28862;SDS011;15994;51.796;13.006;2023-07-22T08:18:25;5.53;;;2.85;;
28862;SDS011;15994;51.796;13.006;2023-07-22T08:20:55;7.18;;;3.38;;
28862;SDS011;15994;51.796;13.006;2023-07-22T08:23:22;6.18;;;3.92;;
28862;SDS011;15994;51.796;13.006;2023-07-22T08:25:49;5.53;;;3.28;;
28862;SDS011;15994;51.796;13.006;2023-07-22T08:28:16;4.93;;;3.80;;
28862;SDS011;15994;51.796;13.006;2023-07-22T08:30:43;7.85;;;3.53;;
28862;SDS011;15994;51.796;13.006;2023-07-22T08:33:11;4.82;;;3.30;;
28862;SDS011;15994;51.796;13.006;2023-07-22T08:35:38;4.38;;;3.42;;
28862;SDS011;15994;51.796;13.006;2023-07-22T08:38:05;5.18;;;3.38;;
28862;SDS011;15994;51.796;13.006;2023-07-22T08:40:33;5.55;;;3.50;;
28862;SDS011;15994;51.796;13.006;2023-07-22T08:43:01;6.47;;;3.50;;
28862;SDS011;15994;51.796;13.006;2023-07-22T08:45:29;3.85;;;2.72;;
28862;SDS011;15994;51.796;13.006;2023-07-22T08:47:57;3.97;;;2.83;;
28862;SDS011;15994;51.796;13.006;2023-07-22T08:50:26;4.80;;;3.08;;
28862;SDS011;15994;51.796;13.006;2023-07-22T08:52:56;5.45;;;3.58;;
28862;SDS011;15994;51.796;13.006;2023-07-22T08:55:24;5.70;;;3.40;;
28862;SDS011;15994;51.796;13.006;2023-07-22T08:57:51;3.65;;;2.83;;
28862;SDS011;15994;51.796;13.006;2023-07-22T09:00:19;4.68;;;2.70;;
28862;SDS011;15994;51.796;13.006;2023-07-22T09:02:46;4.10;;;2.83;;
28862;SDS011;15994;51.796;13.006;2023-07-22T09:05:13;3.67;;;2.63;;
28862;SDS011;15994;51.796;13.006;2023-07-22T09:07:40;3.90;;;2.60;;
28862;SDS011;15994;51.796;13.006;2023-07-22T09:10:08;5.07;;;2.83;;
28862;SDS011;15994;51.796;13.006;2023-07-22T09:12:35;5.07;;;2.55;;
28862;SDS011;15994;51.796;13.006;2023-07-22T09:15:14;3.50;;;2.63;;
28862;SDS011;15994;51.796;13.006;2023-07-22T09:17:41;4.53;;;3.30;;
28862;SDS011;15994;51.796;13.006;2023-07-22T09:20:08;4.45;;;2.60;;
28862;SDS011;15994;51.796;13.006;2023-07-22T09:22:39;4.07;;;3.03;;
28862;SDS011;15994;51.796;13.006;2023-07-22T09:25:13;4.47;;;2.67;;
28862;SDS011;15994;51.796;13.006;2023-07-22T09:27:41;5.45;;;3.70;;
28862;SDS011;15994;51.796;13.006;2023-07-22T09:30:21;4.20;;;2.65;;
28862;SDS011;15994;51.796;13.006;2023-07-22T09:32:48;3.67;;;2.70;;
28862;SDS011;15994;51.796;13.006;2023-07-22T09:35:15;6.10;;;3.20;;
28862;SDS011;15994;51.796;13.006;2023-07-22T09:37:42;5.97;;;3.10;;
28862;SDS011;15994;51.796;13.006;2023-07-22T09:42:50;5.82;;;3.50;;
28862;SDS011;15994;51.796;13.006;2023-07-22T09:45:21;4.65;;;3.08;;
28862;SDS011;15994;51.796;13.006;2023-07-22T09:47:49;4.90;;;3.22;;
28862;SDS011;15994;51.796;13.006;2023-07-22T09:50:17;5.43;;;2.92;;
28862;SDS011;15994;51.796;13.006;2023-07-22T09:52:48;9.48;;;4.00;;
28862;SDS011;15994;51.796;13.006;2023-07-22T09:55:16;6.78;;;3.55;;
28862;SDS011;15994;51.796;13.006;2023-07-22T09:57:45;6.03;;;3.83;;
28862;SDS011;15994;51.796;13.006;2023-07-22T10:00:13;5.28;;;3.28;;
28862;SDS011;15994;51.796;13.006;2023-07-22T10:02:41;6.50;;;3.70;;
28862;SDS011;15994;51.796;13.006;2023-07-22T10:05:11;5.25;;;3.55;;
28862;SDS011;15994;51.796;13.006;2023-07-22T10:07:40;4.80;;;3.60;;
28862;SDS011;15994;51.796;13.006;2023-07-22T10:10:09;5.13;;;3.25;;
28862;SDS011;15994;51.796;13.006;2023-07-22T10:12:38;5.47;;;3.30;;
28862;SDS011;15994;51.796;13.006;2023-07-22T10:15:06;4.78;;;3.72;;
28862;SDS011;15994;51.796;13.006;2023-07-22T10:17:33;7.07;;;4.38;;
28862;SDS011;15994;51.796;13.006;2023-07-22T10:20:01;5.07;;;3.72;;
28862;SDS011;15994;51.796;13.006;2023-07-22T10:22:30;5.63;;;4.20;;
28862;SDS011;15994;51.796;13.006;2023-07-22T10:24:57;4.68;;;3.38;;
28862;SDS011;15994;51.796;13.006;2023-07-22T10:27:25;5.07;;;3.00;;
28862;SDS011;15994;51.796;13.006;2023-07-22T10:29:53;5.53;;;4.45;;
28862;SDS011;15994;51.796;13.006;2023-07-22T10:32:21;6.75;;;3.88;;
28862;SDS011;15994;51.796;13.006;2023-07-22T10:34:48;5.70;;;3.97;;
28862;SDS011;15994;51.796;13.006;2023-07-22T10:37:17;8.05;;;4.00;;
28862;SDS011;15994;51.796;13.006;2023-07-22T10:39:49;7.20;;;3.92;;
28862;SDS011;15994;51.796;13.006;2023-07-22T10:42:23;5.55;;;4.22;;
28862;SDS011;15994;51.796;13.006;2023-07-22T10:44:51;4.95;;;3.90;;
28862;SDS011;15994;51.796;13.006;2023-07-22T10:47:34;5.22;;;4.10;;
28862;SDS011;15994;51.796;13.006;2023-07-22T10:50:05;4.55;;;2.92;;
28862;SDS011;15994;51.796;13.006;2023-07-22T10:52:39;3.40;;;3.00;;
28862;SDS011;15994;51.796;13.006;2023-07-22T10:55:17;4.22;;;3.10;;
28862;SDS011;15994;51.796;13.006;2023-07-22T10:57:53;5.53;;;4.18;;
28862;SDS011;15994;51.796;13.006;2023-07-22T11:00:21;4.95;;;3.33;;
28862;SDS011;15994;51.796;13.006;2023-07-22T11:05:46;4.65;;;4.18;;
28862;SDS011;15994;51.796;13.006;2023-07-22T11:08:13;4.60;;;3.70;;
28862;SDS011;15994;51.796;13.006;2023-07-22T11:10:52;4.82;;;3.90;;
28862;SDS011;15994;51.796;13.006;2023-07-22T11:13:26;5.07;;;3.88;;
28862;SDS011;15994;51.796;13.006;2023-07-22T11:15:53;4.10;;;3.50;;
28862;SDS011;15994;51.796;13.006;2023-07-22T11:18:20;4.43;;;3.45;;
28862;SDS011;15994;51.796;13.006;2023-07-22T11:20:49;7.55;;;4.80;;
28862;SDS011;15994;51.796;13.006;2023-07-22T11:23:19;5.55;;;3.92;;
28862;SDS011;15994;51.796;13.006;2023-07-22T11:25:46;3.97;;;3.45;;
28862;SDS011;15994;51.796;13.006;2023-07-22T11:28:14;6.95;;;4.70;;
28862;SDS011;15994;51.796;13.006;2023-07-22T11:30:41;4.65;;;3.58;;
28862;SDS011;15994;51.796;13.006;2023-07-22T11:33:08;5.28;;;3.78;;
28862;SDS011;15994;51.796;13.006;2023-07-22T11:35:35;5.88;;;3.92;;
28862;SDS011;15994;51.796;13.006;2023-07-22T11:38:05;5.93;;;4.18;;
28862;SDS011;15994;51.796;13.006;2023-07-22T11:40:32;5.13;;;3.65;;
28862;SDS011;15994;51.796;13.006;2023-07-22T11:43:00;4.68;;;3.60;;
28862;SDS011;15994;51.796;13.006;2023-07-22T11:45:27;4.85;;;4.00;;
28862;SDS011;15994;51.796;13.006;2023-07-22T11:47:54;5.65;;;4.78;;
28862;SDS011;15994;51.796;13.006;2023-07-22T11:50:33;6.50;;;4.53;;
28862;SDS011;15994;51.796;13.006;2023-07-22T11:53:00;6.32;;;4.65;;
28862;SDS011;15994;51.796;13.006;2023-07-22T11:55:28;5.72;;;4.53;;
28862;SDS011;15994;51.796;13.006;2023-07-22T11:57:55;4.60;;;3.97;;
28862;SDS011;15994;51.796;13.006;2023-07-22T12:00:22;4.72;;;3.80;;
28862;SDS011;15994;51.796;13.006;2023-07-22T12:02:49;4.90;;;3.50;;
28862;SDS011;15994;51.796;13.006;2023-07-22T12:05:21;6.40;;;4.15;;
28862;SDS011;15994;51.796;13.006;2023-07-22T12:07:48;4.50;;;3.90;;
28862;SDS011;15994;51.796;13.006;2023-07-22T12:10:15;4.47;;;3.50;;
28862;SDS011;15994;51.796;13.006;2023-07-22T12:12:45;5.15;;;3.88;;
28862;SDS011;15994;51.796;13.006;2023-07-22T12:15:17;5.03;;;3.75;;
28862;SDS011;15994;51.796;13.006;2023-07-22T12:17:55;5.88;;;4.00;;
28862;SDS011;15994;51.796;13.006;2023-07-22T12:20:27;5.55;;;3.92;;
28862;SDS011;15994;51.796;13.006;2023-07-22T12:22:54;4.35;;;3.75;;
28862;SDS011;15994;51.796;13.006;2023-07-22T12:25:22;5.47;;;3.88;;
28862;SDS011;15994;51.796;13.006;2023-07-22T12:27:49;4.53;;;3.53;;
28862;SDS011;15994;51.796;13.006;2023-07-22T12:30:16;5.85;;;3.80;;
28862;SDS011;15994;51.796;13.006;2023-07-22T12:32:43;5.50;;;3.67;;
28862;SDS011;15994;51.796;13.006;2023-07-22T12:35:10;4.78;;;3.80;;
28862;SDS011;15994;51.796;13.006;2023-07-22T12:37:38;7.43;;;3.78;;
28862;SDS011;15994;51.796;13.006;2023-07-22T12:40:05;6.47;;;4.25;;
28862;SDS011;15994;51.796;13.006;2023-07-22T12:42:33;5.35;;;4.05;;
28862;SDS011;15994;51.796;13.006;2023-07-22T12:45:01;5.72;;;3.90;;
28862;SDS011;15994;51.796;13.006;2023-07-22T12:47:28;4.63;;;3.53;;
28862;SDS011;15994;51.796;13.006;2023-07-22T12:49:55;6.03;;;4.05;;
28862;SDS011;15994;51.796;13.006;2023-07-22T12:52:22;6.00;;;4.05;;
28862;SDS011;15994;51.796;13.006;2023-07-22T12:54:49;5.85;;;3.92;;
28862;SDS011;15994;51.796;13.006;2023-07-22T12:57:16;6.97;;;4.45;;
28862;SDS011;15994;51.796;13.006;2023-07-22T12:59:43;6.57;;;4.18;;
28862;SDS011;15994;51.796;13.006;2023-07-22T13:02:10;4.38;;;3.63;;
28862;SDS011;15994;51.796;13.006;2023-07-22T13:04:37;5.10;;;4.15;;
28862;SDS011;15994;51.796;13.006;2023-07-22T13:07:04;4.93;;;3.80;;
28862;SDS011;15994;51.796;13.006;2023-07-22T13:09:32;5.07;;;3.55;;
28862;SDS011;15994;51.796;13.006;2023-07-22T13:11:59;4.13;;;3.42;;
28862;SDS011;15994;51.796;13.006;2023-07-22T13:14:26;4.40;;;3.30;;
28862;SDS011;15994;51.796;13.006;2023-07-22T13:16:53;5.10;;;2.80;;
28862;SDS011;15994;51.796;13.006;2023-07-22T13:19:20;4.10;;;3.25;;
28862;SDS011;15994;51.796;13.006;2023-07-22T13:21:47;4.70;;;3.30;;
28862;SDS011;15994;51.796;13.006;2023-07-22T13:24:14;4.75;;;2.78;;
28862;SDS011;15994;51.796;13.006;2023-07-22T13:26:41;3.90;;;2.80;;
28862;SDS011;15994;51.796;13.006;2023-07-22T13:29:08;4.38;;;3.05;;
28862;SDS011;15994;51.796;13.006;2023-07-22T13:31:35;4.45;;;3.58;;
28862;SDS011;15994;51.796;13.006;2023-07-22T13:34:02;4.90;;;3.55;;
28862;SDS011;15994;51.796;13.006;2023-07-22T13:36:29;4.00;;;2.92;;
28862;SDS011;15994;51.796;13.006;2023-07-22T13:38:56;4.10;;;2.50;;
28862;SDS011;15994;51.796;13.006;2023-07-22T13:41:23;3.78;;;2.63;;
28862;SDS011;15994;51.796;13.006;2023-07-22T13:43:50;4.25;;;3.20;;
28862;SDS011;15994;51.796;13.006;2023-07-22T13:46:17;4.03;;;2.80;;
28862;SDS011;15994;51.796;13.006;2023-07-22T13:48:44;6.15;;;3.33;;
28862;SDS011;15994;51.796;13.006;2023-07-22T13:51:11;5.07;;;3.28;;
28862;SDS011;15994;51.796;13.006;2023-07-22T13:53:38;4.20;;;3.50;;
28862;SDS011;15994;51.796;13.006;2023-07-22T13:56:05;3.78;;;3.33;;
28862;SDS011;15994;51.796;13.006;2023-07-22T13:58:32;6.35;;;3.33;;
28862;SDS011;15994;51.796;13.006;2023-07-22T14:00:59;4.65;;;3.10;;
28862;SDS011;15994;51.796;13.006;2023-07-22T14:03:26;5.75;;;3.40;;
28862;SDS011;15994;51.796;13.006;2023-07-22T14:05:53;3.78;;;3.15;;
28862;SDS011;15994;51.796;13.006;2023-07-22T14:08:20;5.78;;;3.47;;
28862;SDS011;15994;51.796;13.006;2023-07-22T14:10:47;4.60;;;3.45;;
28862;SDS011;15994;51.796;13.006;2023-07-22T14:13:14;4.30;;;3.60;;
28862;SDS011;15994;51.796;13.006;2023-07-22T14:15:41;5.97;;;3.58;;
28862;SDS011;15994;51.796;13.006;2023-07-22T14:18:08;3.42;;;2.90;;
28862;SDS011;15994;51.796;13.006;2023-07-22T14:20:35;4.05;;;2.70;;
28862;SDS011;15994;51.796;13.006;2023-07-22T14:23:02;4.22;;;3.28;;
28862;SDS011;15994;51.796;13.006;2023-07-22T14:25:29;4.75;;;3.20;;
28862;SDS011;15994;51.796;13.006;2023-07-22T14:27:56;4.18;;;3.15;;
28862;SDS011;15994;51.796;13.006;2023-07-22T14:30:23;4.53;;;3.30;;
28862;SDS011;15994;51.796;13.006;2023-07-22T14:32:50;7.22;;;3.28;;
28862;SDS011;15994;51.796;13.006;2023-07-22T14:35:17;3.70;;;3.30;;
28862;SDS011;15994;51.796;13.006;2023-07-22T14:37:44;4.38;;;3.22;;
28862;SDS011;15994;51.796;13.006;2023-07-22T14:40:11;4.95;;;3.40;;
28862;SDS011;15994;51.796;13.006;2023-07-22T14:42:39;3.92;;;3.30;;
28862;SDS011;15994;51.796;13.006;2023-07-22T14:45:06;5.45;;;3.58;;